aviador You're here:

GMTA Decoded Metar

AL HOCIEMA in MOROCCO
Report Time2017-08-20 19:00:00
UTC Time2017-08-20 19:12:02
Flight Rules vfr VFR
Wind070° at 08 kt
W.Decomp.*RWY 35: 1.3 kt HW 7.9 kt RCW
W.Rank070° ranks 31
Current wind is above 070° avg. (6.1)
Visibility8000 m
Phenomena:N/A
Clouds:Few 016 Hf
Expected CloudBase > 2,400 ft AGL from Temp-Dew spread
CeilingNone
Temp29°C (ISA +14)
Dew Point23°C (70% RH)
Heat Index32.7°C
QNH1016 hPa
Density Alt1,932 ft
Elevation46 ft
Report Wrong Elevation
Raw Report
GMTA 201900Z 07008KT 8000 FEW016 29/23 Q1016 NOSIG=

Extra information for GMTA:More info

Metar Taf Metar & Taf Last 4 Metars F.Rules Stats Wind Profile Meteogram Temp Stats Airport Information Weather charts Add Link Nearby VenuesMetar ALERT Operation Metar Decoded Social comments